Sand Point Airport
PASD : rendu visible

Aérodrome :











RETROUVEZ-NOUS SUR...

 
LOGIN :

S'inscrire | Disclaimer

   EN    FR    IT 

 









Légende :    VFR   VFR Marginal   IFR   IFR Intensif   IFR Très Intensif
Visi : 
Plafond : 
>= 8 km
>= 3000ft
5 à 8 km
1000 à 3000 ft
1500m à 5 km
500 à 1000 ft
800 à 1500m
200 à 500 ft
< 800m
< 200 ft
Symboles :   Orages  Brouillard  Fortes neiges  Fortes précipitations  Vent > 20 kt






- Altitude de l'aérodrome : 21 ft
- Code IATA : SDP


PASD - Sand Point

DERNIER METAR :
  • 061056Z AUTO 26003KT 10SM OVC029 07/05 A3009 RMK AO2 SLP190 T00720050 PNO $

METARs EXPIRÉS :
  • 060956Z AUTO 23003KT 10SM BKN024 OVC033 07/06 A3009 RMK AO2 RAE00 SLP190 T00720056 PNO $
  • 060856Z AUTO 28004KT 9SM -RA BKN018 BKN024 OVC029 08/06 A3009 RMK AO2 RAB20E34B50 SLP192 6//// T00780056 56005 PNO $

TAF PASD
Valide du 06 à 12h jusqu'au 07 à 12h UTC


061125Z 0612/0712 VRB05KT P6SM VCSH BKN030
TEMPO 0612/0615 -SHRA BKN025 AMD LTD TO CLD VIS AND WIND
FIR PAZA / Amérique du Nord



MET'MAP, la Météo Aéronautique d'un coup d'oeil ! - Copyright ORBIFLY Décembre 2007 - Disclaimer

ORBIFLY MET'MAP TEAM :

Programmation & Développement : Alexandra Zaïnal
Sur une idée originale de : Baudouin d'Aumeries
Assistance à la programmation : Marc-Olivier Méhu
Soutien technique & logistique : Manuel Goepfert

Contact : metmap@orbifly.com




SOURCES & CREDITS :

   NOAA       Earth
Advisory